MAPA DE AEROPUERTO

INFORMACIÓN METAR y TAF

METAR FOR LEPP
ADDS - METARS form results

(1656 UTC 07 May 2021)
Data provider http://aviationweather.gov/metar/data/
 
METAR text: LEPP 071630Z 09003KT 9999 FEW045 24/11 Q1017
Conditions at: LEPP (PAMPLONA/NOAIN , ES) observed 1630 UTC 07 May 2021
Temperature: 24.0°C (75°F)
Dewpoint: 11.0°C (52°F) [RH = 44%]
Pressure (altimeter): 30.03 inches Hg (1017.0 mb)
Winds: from the E (90 degrees) at 3 MPH (3 knots; 1.5 m/s)
Visibility: 6 or more miles (10+ km)
Ceiling: at least 12,000 feet AGL
Clouds: few clouds at 4500 feet AGL
Weather: no significant weather observed at this time

METAR text: LEPP 071600Z 10003KT 9999 FEW045 23/11 Q1017
Conditions at: LEPP (PAMPLONA/NOAIN , ES) observed 1600 UTC 07 May 2021
Temperature: 23.0°C (73°F)
Dewpoint: 11.0°C (52°F) [RH = 47%]
Pressure (altimeter): 30.03 inches Hg (1017.0 mb)
Winds: from the E (100 degrees) at 3 MPH (3 knots; 1.5 m/s)
Visibility: 6 or more miles (10+ km)
Ceiling: at least 12,000 feet AGL
Clouds: few clouds at 4500 feet AGL
Weather: no significant weather observed at this time

Forecast for: LEPP (PAMPLONA/NOAIN , ES)
Text: TAF LEPP 071400Z 0715/0815 VRB06KT 9999 FEW025 TX30/0815Z TN10/0804Z
Forecast period: 1500 UTC 07 May 2021 to 0800 UTC 08 May 2021
Forecast type: FROM: standard forecast or significant change
Winds: variable direction winds at 7 MPH (6 knots; 3.1 m/s)
Visibility: 6 or more miles (10+ km)
Ceiling: at least 12,000 feet AGL
Clouds: few clouds at 2500 feet AGL
Weather: no significant weather forecast for this period
Text: PROB30
Forecast period: 1500 to 1800 UTC 07 May 2021
Forecast type: TEMPORARY: The following changes expected for less than half the time period
Visibility: missing
Ceiling: at least 12,000 feet AGL
Clouds: scattered clouds at 3500 feet AGL
Weather: no significant weather forecast for this period
Text: TEMPO 0715/0718 SCT035TCU
Forecast period: 2300 UTC 07 May 2021 to 0500 UTC 08 May 2021
Forecast type: TEMPORARY: The following changes expected for less than half the time period
Visibility: 1.86 miles (2.99 km)
Ceiling: unknown
Clouds: missing
Weather: BR  (mist)
Text: PROB40
Forecast period: 0800 to 1500 UTC 08 May 2021
Forecast type: BECOMING: Conditions expected to become as follows by 1000 UTC 08 May 2021
Winds: from the S (170 degrees) at 14 MPH (12 knots; 6.2 m/s)
Visibility: 6 or more miles (10+ km)
Ceiling: at least 12,000 feet AGL
Clouds: few clouds at 2500 feet AGL
Weather: no significant weather forecast for this period
Text: TEMPO 0723/0805 3000 BR
Forecast period: 1000 to 1500 UTC 08 May 2021
Forecast type: TEMPORARY: The following changes expected for less than half the time period
Winds: from the SE (140 degrees) at 18 MPH (16 knots; 8.2 m/s)
gusting to 31 MPH (27 knots; 13.9 m/s)
Visibility: missing
Ceiling: unknown
Clouds: missing
Weather: no significant weather forecast for this period